sensor_id;sensor_type;location;lat;lon;timestamp;P1;P2;P0
73749;PMS7003;62058;48.406;-4.514;2022-07-21T00:00:03;8.50;7.00;4.50
73749;PMS7003;62058;48.406;-4.514;2022-07-21T00:02:32;5.25;4.00;2.00
73749;PMS7003;62058;48.406;-4.514;2022-07-21T00:04:57;4.50;2.00;2.00
73749;PMS7003;62058;48.406;-4.514;2022-07-21T00:07:23;7.75;5.00;4.00
73749;PMS7003;62058;48.406;-4.514;2022-07-21T00:09:48;2.50;2.50;2.00
73749;PMS7003;62058;48.406;-4.514;2022-07-21T00:12:13;8.75;4.25;4.25
73749;PMS7003;62058;48.406;-4.514;2022-07-21T00:14:39;4.75;4.75;4.00
73749;PMS7003;62058;48.406;-4.514;2022-07-21T00:17:04;5.00;5.00;4.50
73749;PMS7003;62058;48.406;-4.514;2022-07-21T00:19:29;5.00;5.00;2.00
73749;PMS7003;62058;48.406;-4.514;2022-07-21T00:21:55;6.50;4.50;3.00
73749;PMS7003;62058;48.406;-4.514;2022-07-21T00:24:20;4.00;4.00;2.00
73749;PMS7003;62058;48.406;-4.514;2022-07-21T00:26:46;8.00;4.50;3.50
73749;PMS7003;62058;48.406;-4.514;2022-07-21T00:29:11;7.75;4.50;4.00
73749;PMS7003;62058;48.406;-4.514;2022-07-21T00:31:37;5.50;4.75;2.00
73749;PMS7003;62058;48.406;-4.514;2022-07-21T00:34:02;2.00;2.00;1.75
73749;PMS7003;62058;48.406;-4.514;2022-07-21T00:36:27;4.00;3.00;1.50
73749;PMS7003;62058;48.406;-4.514;2022-07-21T00:38:53;6.00;4.00;4.00
73749;PMS7003;62058;48.406;-4.514;2022-07-21T00:41:18;2.00;1.00;1.00
73749;PMS7003;62058;48.406;-4.514;2022-07-21T00:43:44;3.00;3.00;2.00
73749;PMS7003;62058;48.406;-4.514;2022-07-21T00:46:09;9.25;5.50;4.50
73749;PMS7003;62058;48.406;-4.514;2022-07-21T00:48:34;3.50;3.50;1.75
73749;PMS7003;62058;48.406;-4.514;2022-07-21T00:51:00;10.00;4.00;2.00
73749;PMS7003;62058;48.406;-4.514;2022-07-21T00:53:25;6.00;4.00;2.00
73749;PMS7003;62058;48.406;-4.514;2022-07-21T00:55:51;2.00;1.00;1.00
73749;PMS7003;62058;48.406;-4.514;2022-07-21T00:58:16;4.00;3.00;1.75
73749;PMS7003;62058;48.406;-4.514;2022-07-21T01:00:42;3.50;3.50;2.00
73749;PMS7003;62058;48.406;-4.514;2022-07-21T01:03:08;4.00;4.00;3.50
73749;PMS7003;62058;48.406;-4.514;2022-07-21T01:05:33;5.00;2.50;1.25
73749;PMS7003;62058;48.406;-4.514;2022-07-21T01:07:59;1.00;1.00;1.00
73749;PMS7003;62058;48.406;-4.514;2022-07-21T01:10:28;5.00;1.75;1.00
73749;PMS7003;62058;48.406;-4.514;2022-07-21T01:12:54;1.75;1.75;1.00
73749;PMS7003;62058;48.406;-4.514;2022-07-21T01:15:21;2.50;2.50;2.00
73749;PMS7003;62058;48.406;-4.514;2022-07-21T01:17:47;3.50;2.00;1.25
73749;PMS7003;62058;48.406;-4.514;2022-07-21T01:20:15;4.00;4.00;2.00
73749;PMS7003;62058;48.406;-4.514;2022-07-21T01:22:43;2.00;1.00;1.00
73749;PMS7003;62058;48.406;-4.514;2022-07-21T01:25:10;2.00;2.00;1.75
73749;PMS7003;62058;48.406;-4.514;2022-07-21T01:27:36;5.00;2.00;1.00
73749;PMS7003;62058;48.406;-4.514;2022-07-21T01:30:03;2.00;2.00;1.00
73749;PMS7003;62058;48.406;-4.514;2022-07-21T01:32:30;4.00;1.25;1.00
73749;PMS7003;62058;48.406;-4.514;2022-07-21T01:34:55;2.00;2.00;1.75
73749;PMS7003;62058;48.406;-4.514;2022-07-21T01:37:22;4.50;1.00;1.00
73749;PMS7003;62058;48.406;-4.514;2022-07-21T01:39:51;1.00;1.00;1.00
73749;PMS7003;62058;48.406;-4.514;2022-07-21T01:42:35;1.00;1.00;0.50
73749;PMS7003;62058;48.406;-4.514;2022-07-21T01:45:01;2.00;2.00;1.75
73749;PMS7003;62058;48.406;-4.514;2022-07-21T01:47:26;3.00;2.00;2.00
73749;PMS7003;62058;48.406;-4.514;2022-07-21T01:49:52;1.00;1.00;0.25
73749;PMS7003;62058;48.406;-4.514;2022-07-21T01:52:18;1.75;1.75;1.25
73749;PMS7003;62058;48.406;-4.514;2022-07-21T01:54:43;5.00;1.00;1.00
73749;PMS7003;62058;48.406;-4.514;2022-07-21T01:57:08;1.50;1.50;1.00
73749;PMS7003;62058;48.406;-4.514;2022-07-21T01:59:34;1.00;1.00;1.00
73749;PMS7003;62058;48.406;-4.514;2022-07-21T02:01:59;2.00;2.00;2.00
73749;PMS7003;62058;48.406;-4.514;2022-07-21T02:04:25;3.50;3.50;1.75
73749;PMS7003;62058;48.406;-4.514;2022-07-21T02:06:50;1.25;1.25;1.00
73749;PMS7003;62058;48.406;-4.514;2022-07-21T02:09:15;3.50;1.00;1.00
73749;PMS7003;62058;48.406;-4.514;2022-07-21T02:11:41;4.25;1.00;1.00
73749;PMS7003;62058;48.406;-4.514;2022-07-21T02:14:06;1.00;1.00;1.00
73749;PMS7003;62058;48.406;-4.514;2022-07-21T02:16:32;1.00;1.00;1.00
73749;PMS7003;62058;48.406;-4.514;2022-07-21T02:18:57;2.00;2.00;2.00
73749;PMS7003;62058;48.406;-4.514;2022-07-21T02:21:23;1.75;1.75;1.00
73749;PMS7003;62058;48.406;-4.514;2022-07-21T02:23:49;2.50;0.50;0.50
73749;PMS7003;62058;48.406;-4.514;2022-07-21T02:26:14;1.00;1.00;0.00
73749;PMS7003;62058;48.406;-4.514;2022-07-21T02:28:39;1.00;1.00;1.00
73749;PMS7003;62058;48.406;-4.514;2022-07-21T02:31:05;0.00;0.00;0.00
73749;PMS7003;62058;48.406;-4.514;2022-07-21T02:33:31;4.50;2.50;1.00
73749;PMS7003;62058;48.406;-4.514;2022-07-21T02:35:57;1.75;1.75;1.00
73749;PMS7003;62058;48.406;-4.514;2022-07-21T02:38:22;1.50;1.25;1.00
73749;PMS7003;62058;48.406;-4.514;2022-07-21T02:40:48;1.00;1.00;1.00
73749;PMS7003;62058;48.406;-4.514;2022-07-21T02:43:14;3.50;1.50;1.00
73749;PMS7003;62058;48.406;-4.514;2022-07-21T02:45:39;1.00;1.00;1.00
73749;PMS7003;62058;48.406;-4.514;2022-07-21T02:48:08;1.75;1.75;1.00
73749;PMS7003;62058;48.406;-4.514;2022-07-21T02:50:35;0.50;0.00;0.00
73749;PMS7003;62058;48.406;-4.514;2022-07-21T02:53:06;2.00;0.50;0.50
73749;PMS7003;62058;48.406;-4.514;2022-07-21T02:55:34;3.50;1.00;1.00
73749;PMS7003;62058;48.406;-4.514;2022-07-21T02:58:10;2.00;1.00;0.25
73749;PMS7003;62058;48.406;-4.514;2022-07-21T03:01:02;2.00;1.00;1.00
73749;PMS7003;62058;48.406;-4.514;2022-07-21T03:03:29;1.00;1.00;1.00
73749;PMS7003;62058;48.406;-4.514;2022-07-21T03:05:57;4.00;1.75;1.00
73749;PMS7003;62058;48.406;-4.514;2022-07-21T03:08:23;2.00;2.00;2.00
73749;PMS7003;62058;48.406;-4.514;2022-07-21T03:10:50;1.00;1.00;1.00
73749;PMS7003;62058;48.406;-4.514;2022-07-21T03:13:15;2.00;2.00;1.00
73749;PMS7003;62058;48.406;-4.514;2022-07-21T03:15:41;1.00;1.00;1.00
73749;PMS7003;62058;48.406;-4.514;2022-07-21T03:18:07;2.50;2.00;1.75
73749;PMS7003;62058;48.406;-4.514;2022-07-21T03:20:33;1.00;1.00;1.00
73749;PMS7003;62058;48.406;-4.514;2022-07-21T03:23:00;1.75;1.00;1.00
73749;PMS7003;62058;48.406;-4.514;2022-07-21T03:25:26;1.00;1.00;1.00
73749;PMS7003;62058;48.406;-4.514;2022-07-21T03:27:52;1.25;1.00;1.00
73749;PMS7003;62058;48.406;-4.514;2022-07-21T03:30:18;1.00;1.00;1.00
73749;PMS7003;62058;48.406;-4.514;2022-07-21T03:32:45;3.00;1.25;1.00
73749;PMS7003;62058;48.406;-4.514;2022-07-21T03:35:11;2.00;2.00;2.00
73749;PMS7003;62058;48.406;-4.514;2022-07-21T03:37:42;1.75;1.75;1.00
73749;PMS7003;62058;48.406;-4.514;2022-07-21T03:40:09;1.00;1.00;1.00
73749;PMS7003;62058;48.406;-4.514;2022-07-21T03:42:36;4.25;3.75;3.00
73749;PMS7003;62058;48.406;-4.514;2022-07-21T03:45:02;2.00;2.00;1.25
73749;PMS7003;62058;48.406;-4.514;2022-07-21T03:47:27;2.00;2.00;1.50
73749;PMS7003;62058;48.406;-4.514;2022-07-21T03:49:53;2.00;1.50;1.00
73749;PMS7003;62058;48.406;-4.514;2022-07-21T03:52:18;1.00;1.00;1.00
73749;PMS7003;62058;48.406;-4.514;2022-07-21T03:54:43;2.00;1.00;1.00
73749;PMS7003;62058;48.406;-4.514;2022-07-21T03:57:09;1.00;1.00;1.00
73749;PMS7003;62058;48.406;-4.514;2022-07-21T03:59:34;2.75;1.50;1.25
73749;PMS7003;62058;48.406;-4.514;2022-07-21T04:01:59;3.50;1.75;1.50
73749;PMS7003;62058;48.406;-4.514;2022-07-21T04:04:25;4.00;2.00;1.00
73749;PMS7003;62058;48.406;-4.514;2022-07-21T04:06:50;4.00;1.00;1.00
73749;PMS7003;62058;48.406;-4.514;2022-07-21T04:09:16;1.25;1.25;1.00
73749;PMS7003;62058;48.406;-4.514;2022-07-21T04:11:42;1.00;1.00;1.00
73749;PMS7003;62058;48.406;-4.514;2022-07-21T04:14:08;2.00;1.00;1.00
73749;PMS7003;62058;48.406;-4.514;2022-07-21T04:16:34;2.00;1.00;1.00
73749;PMS7003;62058;48.406;-4.514;2022-07-21T04:18:59;1.75;0.75;0.75
73749;PMS7003;62058;48.406;-4.514;2022-07-21T04:21:25;2.00;2.00;1.00
73749;PMS7003;62058;48.406;-4.514;2022-07-21T04:23:50;1.00;1.00;1.00
73749;PMS7003;62058;48.406;-4.514;2022-07-21T04:26:15;4.75;1.50;1.50
73749;PMS7003;62058;48.406;-4.514;2022-07-21T04:28:41;1.00;1.00;1.00
73749;PMS7003;62058;48.406;-4.514;2022-07-21T04:31:06;3.00;3.00;1.00
73749;PMS7003;62058;48.406;-4.514;2022-07-21T04:33:32;1.00;0.75;0.75
73749;PMS7003;62058;48.406;-4.514;2022-07-21T04:35:57;1.50;1.50;1.00
73749;PMS7003;62058;48.406;-4.514;2022-07-21T04:38:22;1.00;1.00;1.00
73749;PMS7003;62058;48.406;-4.514;2022-07-21T04:40:48;3.50;1.25;1.25
73749;PMS7003;62058;48.406;-4.514;2022-07-21T04:43:13;5.50;1.75;1.00
73749;PMS7003;62058;48.406;-4.514;2022-07-21T04:45:39;3.00;2.00;1.50
73749;PMS7003;62058;48.406;-4.514;2022-07-21T04:48:04;2.00;1.75;1.75
73749;PMS7003;62058;48.406;-4.514;2022-07-21T04:50:31;3.50;2.00;2.00
73749;PMS7003;62058;48.406;-4.514;2022-07-21T04:52:57;1.50;1.25;1.00
73749;PMS7003;62058;48.406;-4.514;2022-07-21T04:55:24;0.00;0.00;0.00
73749;PMS7003;62058;48.406;-4.514;2022-07-21T04:57:50;3.50;1.25;1.00
73749;PMS7003;62058;48.406;-4.514;2022-07-21T05:00:18;1.75;0.50;0.50
73749;PMS7003;62058;48.406;-4.514;2022-07-21T05:02:46;1.75;1.00;1.00
73749;PMS7003;62058;48.406;-4.514;2022-07-21T05:05:12;1.00;1.00;0.75
73749;PMS7003;62058;48.406;-4.514;2022-07-21T05:07:38;1.00;1.00;1.00
73749;PMS7003;62058;48.406;-4.514;2022-07-21T05:10:04;3.50;3.50;2.00
73749;PMS7003;62058;48.406;-4.514;2022-07-21T05:12:31;2.50;2.50;1.50
73749;PMS7003;62058;48.406;-4.514;2022-07-21T05:14:57;3.00;2.00;1.00
73749;PMS7003;62058;48.406;-4.514;2022-07-21T05:17:22;1.00;1.00;1.00
73749;PMS7003;62058;48.406;-4.514;2022-07-21T05:19:47;2.50;1.00;1.00
73749;PMS7003;62058;48.406;-4.514;2022-07-21T05:22:15;0.00;0.00;0.00
73749;PMS7003;62058;48.406;-4.514;2022-07-21T05:24:41;1.00;1.00;1.00
73749;PMS7003;62058;48.406;-4.514;2022-07-21T05:27:07;5.50;1.50;1.50
73749;PMS7003;62058;48.406;-4.514;2022-07-21T05:29:32;1.25;1.00;1.00
73749;PMS7003;62058;48.406;-4.514;2022-07-21T05:31:58;1.00;1.00;1.00
73749;PMS7003;62058;48.406;-4.514;2022-07-21T05:34:23;4.00;1.00;0.25
73749;PMS7003;62058;48.406;-4.514;2022-07-21T05:36:48;4.25;2.00;1.00
73749;PMS7003;62058;48.406;-4.514;2022-07-21T05:39:14;1.00;1.00;1.00
73749;PMS7003;62058;48.406;-4.514;2022-07-21T05:41:39;4.25;2.00;2.00
73749;PMS7003;62058;48.406;-4.514;2022-07-21T05:44:04;1.00;1.00;1.00
73749;PMS7003;62058;48.406;-4.514;2022-07-21T05:46:30;4.00;2.00;1.00
73749;PMS7003;62058;48.406;-4.514;2022-07-21T05:48:55;4.50;2.00;2.00
73749;PMS7003;62058;48.406;-4.514;2022-07-21T05:51:21;1.00;1.00;1.00
73749;PMS7003;62058;48.406;-4.514;2022-07-21T05:53:46;3.00;2.00;2.00
73749;PMS7003;62058;48.406;-4.514;2022-07-21T05:56:12;4.25;3.50;3.00
73749;PMS7003;62058;48.406;-4.514;2022-07-21T05:58:37;4.00;1.75;1.25
73749;PMS7003;62058;48.406;-4.514;2022-07-21T06:01:03;5.00;1.00;0.25
73749;PMS7003;62058;48.406;-4.514;2022-07-21T06:03:48;1.00;1.00;1.00
73749;PMS7003;62058;48.406;-4.514;2022-07-21T06:06:14;2.50;2.00;1.50
73749;PMS7003;62058;48.406;-4.514;2022-07-21T06:08:42;1.00;1.00;1.00
73749;PMS7003;62058;48.406;-4.514;2022-07-21T06:11:10;1.00;1.00;1.00
73749;PMS7003;62058;48.406;-4.514;2022-07-21T06:13:36;3.50;1.00;1.00
73749;PMS7003;62058;48.406;-4.514;2022-07-21T06:16:02;2.00;2.00;2.00
73749;PMS7003;62058;48.406;-4.514;2022-07-21T06:18:28;1.50;1.00;1.00
73749;PMS7003;62058;48.406;-4.514;2022-07-21T06:20:54;4.00;2.00;2.00
73749;PMS7003;62058;48.406;-4.514;2022-07-21T06:23:20;2.00;2.00;2.00
73749;PMS7003;62058;48.406;-4.514;2022-07-21T06:25:45;2.00;2.00;1.75
73749;PMS7003;62058;48.406;-4.514;2022-07-21T06:28:11;5.50;4.00;4.00
73749;PMS7003;62058;48.406;-4.514;2022-07-21T06:30:37;5.00;1.50;1.25
73749;PMS7003;62058;48.406;-4.514;2022-07-21T06:33:02;2.50;2.50;2.00
73749;PMS7003;62058;48.406;-4.514;2022-07-21T06:35:28;2.00;2.00;2.00
73749;PMS7003;62058;48.406;-4.514;2022-07-21T06:37:53;4.50;2.50;2.00
73749;PMS7003;62058;48.406;-4.514;2022-07-21T06:40:19;2.50;2.50;2.00
73749;PMS7003;62058;48.406;-4.514;2022-07-21T06:42:44;2.00;2.00;2.00
73749;PMS7003;62058;48.406;-4.514;2022-07-21T06:45:10;1.75;1.75;1.50
73749;PMS7003;62058;48.406;-4.514;2022-07-21T06:47:35;2.00;2.00;2.00
73749;PMS7003;62058;48.406;-4.514;2022-07-21T06:50:01;2.00;2.00;2.00
73749;PMS7003;62058;48.406;-4.514;2022-07-21T06:52:31;2.50;2.50;2.25
73749;PMS7003;62058;48.406;-4.514;2022-07-21T06:54:58;2.00;2.00;1.75
73749;PMS7003;62058;48.406;-4.514;2022-07-21T06:57:23;3.25;3.25;3.00
73749;PMS7003;62058;48.406;-4.514;2022-07-21T06:59:49;3.25;3.25;2.25
73749;PMS7003;62058;48.406;-4.514;2022-07-21T07:02:14;2.00;2.00;2.00
73749;PMS7003;62058;48.406;-4.514;2022-07-21T07:04:40;5.75;3.50;2.50
73749;PMS7003;62058;48.406;-4.514;2022-07-21T07:07:05;5.00;2.25;2.00
73749;PMS7003;62058;48.406;-4.514;2022-07-21T07:09:31;2.00;2.00;2.00
73749;PMS7003;62058;48.406;-4.514;2022-07-21T07:11:57;6.00;3.00;3.00
73749;PMS7003;62058;48.406;-4.514;2022-07-21T07:14:32;2.00;2.00;2.00
73749;PMS7003;62058;48.406;-4.514;2022-07-21T07:16:58;2.00;2.00;2.00
73749;PMS7003;62058;48.406;-4.514;2022-07-21T07:19:24;3.00;2.25;2.00
73749;PMS7003;62058;48.406;-4.514;2022-07-21T07:21:50;1.00;1.00;1.00
73749;PMS7003;62058;48.406;-4.514;2022-07-21T07:24:16;2.75;2.75;2.00
73749;PMS7003;62058;48.406;-4.514;2022-07-21T07:26:41;1.00;1.00;1.00
73749;PMS7003;62058;48.406;-4.514;2022-07-21T07:29:07;4.25;2.00;1.00
73749;PMS7003;62058;48.406;-4.514;2022-07-21T07:31:33;2.00;2.00;2.00
73749;PMS7003;62058;48.406;-4.514;2022-07-21T07:34:00;2.75;1.00;1.00
73749;PMS7003;62058;48.406;-4.514;2022-07-21T07:36:26;1.50;1.50;1.00
73749;PMS7003;62058;48.406;-4.514;2022-07-21T07:38:53;1.00;1.00;1.00
73749;PMS7003;62058;48.406;-4.514;2022-07-21T07:41:19;1.75;1.75;1.00
73749;PMS7003;62058;48.406;-4.514;2022-07-21T07:43:46;2.50;1.00;1.00
73749;PMS7003;62058;48.406;-4.514;2022-07-21T07:46:11;3.25;1.75;1.25
73749;PMS7003;62058;48.406;-4.514;2022-07-21T07:48:37;2.00;2.00;2.00
73749;PMS7003;62058;48.406;-4.514;2022-07-21T07:51:05;2.00;2.00;1.00
73749;PMS7003;62058;48.406;-4.514;2022-07-21T07:53:30;5.00;2.50;2.50
73749;PMS7003;62058;48.406;-4.514;2022-07-21T07:55:56;1.25;1.25;1.25
73749;PMS7003;62058;48.406;-4.514;2022-07-21T07:58:21;2.00;2.00;2.00
73749;PMS7003;62058;48.406;-4.514;2022-07-21T08:00:46;3.00;2.25;1.75
73749;PMS7003;62058;48.406;-4.514;2022-07-21T08:03:12;1.00;1.00;1.00
73749;PMS7003;62058;48.406;-4.514;2022-07-21T08:05:38;0.25;0.25;0.00
73749;PMS7003;62058;48.406;-4.514;2022-07-21T08:08:03;1.00;1.00;1.00
73749;PMS7003;62058;48.406;-4.514;2022-07-21T08:10:29;2.00;2.00;2.00
73749;PMS7003;62058;48.406;-4.514;2022-07-21T08:12:55;1.50;0.75;0.75
73749;PMS7003;62058;48.406;-4.514;2022-07-21T08:15:20;1.00;1.00;1.00
73749;PMS7003;62058;48.406;-4.514;2022-07-21T08:17:46;1.25;1.25;1.00
73749;PMS7003;62058;48.406;-4.514;2022-07-21T08:20:11;1.75;1.00;1.00
73749;PMS7003;62058;48.406;-4.514;2022-07-21T08:22:37;1.00;1.00;0.75
73749;PMS7003;62058;48.406;-4.514;2022-07-21T08:25:02;1.00;1.00;1.00
73749;PMS7003;62058;48.406;-4.514;2022-07-21T08:27:29;2.00;0.50;0.25
73749;PMS7003;62058;48.406;-4.514;2022-07-21T08:29:55;2.25;1.00;1.00
73749;PMS7003;62058;48.406;-4.514;2022-07-21T08:32:21;1.00;1.00;1.00
73749;PMS7003;62058;48.406;-4.514;2022-07-21T08:34:47;2.00;2.00;1.25
73749;PMS7003;62058;48.406;-4.514;2022-07-21T08:37:13;1.00;1.00;1.00
73749;PMS7003;62058;48.406;-4.514;2022-07-21T08:39:39;0.00;0.00;0.00
73749;PMS7003;62058;48.406;-4.514;2022-07-21T08:42:06;1.00;1.00;1.00
73749;PMS7003;62058;48.406;-4.514;2022-07-21T08:44:32;0.00;0.00;0.00
73749;PMS7003;62058;48.406;-4.514;2022-07-21T08:46:58;0.00;0.00;0.00
73749;PMS7003;62058;48.406;-4.514;2022-07-21T08:49:24;1.00;1.00;1.00
73749;PMS7003;62058;48.406;-4.514;2022-07-21T08:51:50;1.00;1.00;1.00
73749;PMS7003;62058;48.406;-4.514;2022-07-21T08:54:18;2.00;2.00;1.50
73749;PMS7003;62058;48.406;-4.514;2022-07-21T08:56:45;0.25;0.25;0.25
73749;PMS7003;62058;48.406;-4.514;2022-07-21T08:59:10;1.00;1.00;1.00
73749;PMS7003;62058;48.406;-4.514;2022-07-21T09:01:36;0.75;0.75;0.00
73749;PMS7003;62058;48.406;-4.514;2022-07-21T09:09:29;1.00;1.00;0.25
73749;PMS7003;62058;48.406;-4.514;2022-07-21T09:11:55;2.00;1.75;1.00
73749;PMS7003;62058;48.406;-4.514;2022-07-21T09:14:23;3.00;2.00;1.50
73749;PMS7003;62058;48.406;-4.514;2022-07-21T09:16:51;2.25;1.00;1.00
73749;PMS7003;62058;48.406;-4.514;2022-07-21T09:21:43;0.75;0.75;0.75
73749;PMS7003;62058;48.406;-4.514;2022-07-21T09:29:22;1.00;1.00;1.00
73749;PMS7003;62058;48.406;-4.514;2022-07-21T09:31:47;1.00;1.00;1.00
73749;PMS7003;62058;48.406;-4.514;2022-07-21T09:34:13;1.00;1.00;1.00
73749;PMS7003;62058;48.406;-4.514;2022-07-21T09:36:55;1.00;1.00;1.00
73749;PMS7003;62058;48.406;-4.514;2022-07-21T09:42:15;1.00;1.00;0.50
73749;PMS7003;62058;48.406;-4.514;2022-07-21T09:44:46;1.00;1.00;1.00
73749;PMS7003;62058;48.406;-4.514;2022-07-21T09:47:14;3.00;1.50;1.50
73749;PMS7003;62058;48.406;-4.514;2022-07-21T09:49:41;1.25;1.25;1.00
73749;PMS7003;62058;48.406;-4.514;2022-07-21T09:54:50;0.50;0.50;0.50
73749;PMS7003;62058;48.406;-4.514;2022-07-21T09:57:19;1.50;1.50;1.50
73749;PMS7003;62058;48.406;-4.514;2022-07-21T09:59:46;1.00;1.00;1.00
73749;PMS7003;62058;48.406;-4.514;2022-07-21T10:02:23;1.00;1.00;1.00
73749;PMS7003;62058;48.406;-4.514;2022-07-21T10:07:27;1.00;1.00;1.00
73749;PMS7003;62058;48.406;-4.514;2022-07-21T10:09:53;2.00;1.50;1.50
73749;PMS7003;62058;48.406;-4.514;2022-07-21T10:12:20;2.00;2.00;1.00
73749;PMS7003;62058;48.406;-4.514;2022-07-21T10:14:45;1.75;1.75;1.75
73749;PMS7003;62058;48.406;-4.514;2022-07-21T10:17:14;1.50;1.50;0.50
73749;PMS7003;62058;48.406;-4.514;2022-07-21T10:25:28;1.00;1.00;1.00
73749;PMS7003;62058;48.406;-4.514;2022-07-21T10:33:03;1.75;1.75;1.25
73749;PMS7003;62058;48.406;-4.514;2022-07-21T10:35:29;1.00;0.00;0.00
73749;PMS7003;62058;48.406;-4.514;2022-07-21T10:37:56;1.00;1.00;1.00
73749;PMS7003;62058;48.406;-4.514;2022-07-21T10:45:43;1.00;1.00;1.00
73749;PMS7003;62058;48.406;-4.514;2022-07-21T10:53:38;0.75;0.75;0.75
73749;PMS7003;62058;48.406;-4.514;2022-07-21T10:56:04;1.00;1.00;1.00
73749;PMS7003;62058;48.406;-4.514;2022-07-21T10:58:42;1.00;1.00;0.50
73749;PMS7003;62058;48.406;-4.514;2022-07-21T11:01:20;1.00;1.00;1.00
73749;PMS7003;62058;48.406;-4.514;2022-07-21T11:06:37;0.50;0.50;0.25
73749;PMS7003;62058;48.406;-4.514;2022-07-21T11:11:36;0.25;0.25;0.25
73749;PMS7003;62058;48.406;-4.514;2022-07-21T11:14:21;0.50;0.50;0.50
73749;PMS7003;62058;48.406;-4.514;2022-07-21T11:17:01;1.00;1.00;1.00
73749;PMS7003;62058;48.406;-4.514;2022-07-21T11:22:06;1.00;1.00;1.00
73749;PMS7003;62058;48.406;-4.514;2022-07-21T11:24:55;0.00;0.00;0.00
73749;PMS7003;62058;48.406;-4.514;2022-07-21T11:27:24;1.00;1.00;1.00
73749;PMS7003;62058;48.406;-4.514;2022-07-21T11:29:52;0.75;0.75;0.75
73749;PMS7003;62058;48.406;-4.514;2022-07-21T11:32:19;1.00;1.00;1.00
73749;PMS7003;62058;48.406;-4.514;2022-07-21T11:34:52;1.75;1.50;1.50
73749;PMS7003;62058;48.406;-4.514;2022-07-21T11:37:18;2.00;2.00;2.00
73749;PMS7003;62058;48.406;-4.514;2022-07-21T11:39:53;3.00;2.00;2.00
73749;PMS7003;62058;48.406;-4.514;2022-07-21T11:42:18;2.00;2.00;1.25
73749;PMS7003;62058;48.406;-4.514;2022-07-21T11:44:45;2.75;1.75;1.00
73749;PMS7003;62058;48.406;-4.514;2022-07-21T11:47:11;1.00;1.00;1.00
73749;PMS7003;62058;48.406;-4.514;2022-07-21T11:49:39;1.00;1.00;1.00
73749;PMS7003;62058;48.406;-4.514;2022-07-21T11:52:07;1.00;0.25;0.25
73749;PMS7003;62058;48.406;-4.514;2022-07-21T11:57:07;1.00;1.00;1.00
73749;PMS7003;62058;48.406;-4.514;2022-07-21T11:59:34;1.00;1.00;1.00
73749;PMS7003;62058;48.406;-4.514;2022-07-21T12:02:03;1.00;1.00;1.00
73749;PMS7003;62058;48.406;-4.514;2022-07-21T12:04:38;2.75;1.75;1.00
73749;PMS7003;62058;48.406;-4.514;2022-07-21T12:07:14;1.50;1.00;1.00
73749;PMS7003;62058;48.406;-4.514;2022-07-21T12:09:43;1.00;1.00;1.00
73749;PMS7003;62058;48.406;-4.514;2022-07-21T12:12:10;1.00;1.00;1.00
73749;PMS7003;62058;48.406;-4.514;2022-07-21T12:14:40;1.00;1.00;1.00
73749;PMS7003;62058;48.406;-4.514;2022-07-21T12:17:07;2.50;1.00;1.00
73749;PMS7003;62058;48.406;-4.514;2022-07-21T12:19:32;1.00;1.00;0.75
73749;PMS7003;62058;48.406;-4.514;2022-07-21T12:21:58;0.25;0.25;0.25
73749;PMS7003;62058;48.406;-4.514;2022-07-21T12:24:34;2.00;2.00;1.00
73749;PMS7003;62058;48.406;-4.514;2022-07-21T12:27:16;2.00;1.00;1.00
73749;PMS7003;62058;48.406;-4.514;2022-07-21T12:29:43;2.00;2.00;2.00
73749;PMS7003;62058;48.406;-4.514;2022-07-21T12:32:09;1.25;0.50;0.50
73749;PMS7003;62058;48.406;-4.514;2022-07-21T12:34:48;0.75;0.75;0.50
73749;PMS7003;62058;48.406;-4.514;2022-07-21T12:37:15;0.25;0.25;0.25
73749;PMS7003;62058;48.406;-4.514;2022-07-21T12:39:41;2.00;2.00;1.00
73749;PMS7003;62058;48.406;-4.514;2022-07-21T12:42:32;0.25;0.25;0.25
73749;PMS7003;62058;48.406;-4.514;2022-07-21T12:45:09;0.00;0.00;0.00
73749;PMS7003;62058;48.406;-4.514;2022-07-21T12:47:42;2.00;1.00;0.75
73749;PMS7003;62058;48.406;-4.514;2022-07-21T12:50:08;1.00;1.00;1.00
73749;PMS7003;62058;48.406;-4.514;2022-07-21T12:52:39;2.25;0.00;0.00
73749;PMS7003;62058;48.406;-4.514;2022-07-21T12:55:06;0.75;0.75;0.75
73749;PMS7003;62058;48.406;-4.514;2022-07-21T12:57:32;0.00;0.00;0.00
73749;PMS7003;62058;48.406;-4.514;2022-07-21T12:59:59;0.00;0.00;0.00
73749;PMS7003;62058;48.406;-4.514;2022-07-21T13:02:25;1.00;1.00;1.00
73749;PMS7003;62058;48.406;-4.514;2022-07-21T13:04:52;2.00;2.00;1.25
73749;PMS7003;62058;48.406;-4.514;2022-07-21T13:07:18;1.00;1.00;1.00
73749;PMS7003;62058;48.406;-4.514;2022-07-21T13:09:44;0.50;0.50;0.50
73749;PMS7003;62058;48.406;-4.514;2022-07-21T13:12:11;0.75;0.75;0.75
73749;PMS7003;62058;48.406;-4.514;2022-07-21T13:14:38;0.75;0.75;0.75
73749;PMS7003;62058;48.406;-4.514;2022-07-21T13:17:03;0.75;0.75;0.75
73749;PMS7003;62058;48.406;-4.514;2022-07-21T13:19:29;1.25;1.25;1.00
73749;PMS7003;62058;48.406;-4.514;2022-07-21T13:21:54;1.00;1.00;1.00
73749;PMS7003;62058;48.406;-4.514;2022-07-21T13:24:20;1.75;1.50;1.50
73749;PMS7003;62058;48.406;-4.514;2022-07-21T13:26:45;1.00;1.00;1.00
73749;PMS7003;62058;48.406;-4.514;2022-07-21T13:29:10;1.75;1.25;1.25
73749;PMS7003;62058;48.406;-4.514;2022-07-21T13:31:36;1.00;1.00;1.00
73749;PMS7003;62058;48.406;-4.514;2022-07-21T13:34:05;0.00;0.00;0.00
73749;PMS7003;62058;48.406;-4.514;2022-07-21T13:36:34;0.50;0.50;0.50
73749;PMS7003;62058;48.406;-4.514;2022-07-21T13:39:00;1.00;1.00;1.00
73749;PMS7003;62058;48.406;-4.514;2022-07-21T13:41:28;1.00;1.00;1.00
73749;PMS7003;62058;48.406;-4.514;2022-07-21T13:43:54;2.00;1.00;1.00
73749;PMS7003;62058;48.406;-4.514;2022-07-21T13:46:19;1.25;0.25;0.00
73749;PMS7003;62058;48.406;-4.514;2022-07-21T13:48:45;0.00;0.00;0.00
73749;PMS7003;62058;48.406;-4.514;2022-07-21T13:51:14;1.00;1.00;1.00
73749;PMS7003;62058;48.406;-4.514;2022-07-21T13:53:42;1.25;0.75;0.75
73749;PMS7003;62058;48.406;-4.514;2022-07-21T13:56:09;1.00;1.00;1.00
73749;PMS7003;62058;48.406;-4.514;2022-07-21T13:58:36;1.00;1.00;1.00
73749;PMS7003;62058;48.406;-4.514;2022-07-21T14:01:02;2.00;2.00;1.00
73749;PMS7003;62058;48.406;-4.514;2022-07-21T14:03:27;2.25;1.00;1.00
73749;PMS7003;62058;48.406;-4.514;2022-07-21T14:05:53;0.50;0.50;0.50
73749;PMS7003;62058;48.406;-4.514;2022-07-21T14:08:18;1.00;1.00;1.00
73749;PMS7003;62058;48.406;-4.514;2022-07-21T14:10:44;0.00;0.00;0.00
73749;PMS7003;62058;48.406;-4.514;2022-07-21T14:13:10;0.00;0.00;0.00
73749;PMS7003;62058;48.406;-4.514;2022-07-21T14:15:35;1.00;1.00;1.00
73749;PMS7003;62058;48.406;-4.514;2022-07-21T14:18:01;1.00;1.00;1.00
73749;PMS7003;62058;48.406;-4.514;2022-07-21T14:20:26;1.00;1.00;1.00
73749;PMS7003;62058;48.406;-4.514;2022-07-21T14:22:52;2.00;1.00;1.00
73749;PMS7003;62058;48.406;-4.514;2022-07-21T14:25:18;2.00;1.00;0.75
73749;PMS7003;62058;48.406;-4.514;2022-07-21T14:27:44;1.00;1.00;1.00
73749;PMS7003;62058;48.406;-4.514;2022-07-21T14:30:11;0.25;0.25;0.00
73749;PMS7003;62058;48.406;-4.514;2022-07-21T14:32:36;0.75;0.75;0.25
73749;PMS7003;62058;48.406;-4.514;2022-07-21T14:35:02;1.25;1.00;1.00
73749;PMS7003;62058;48.406;-4.514;2022-07-21T14:37:28;0.50;0.50;0.50
73749;PMS7003;62058;48.406;-4.514;2022-07-21T14:39:53;1.00;1.00;1.00
73749;PMS7003;62058;48.406;-4.514;2022-07-21T14:42:18;1.25;1.25;1.25
73749;PMS7003;62058;48.406;-4.514;2022-07-21T14:44:44;2.00;1.25;1.00
73749;PMS7003;62058;48.406;-4.514;2022-07-21T14:47:10;1.00;1.00;1.00
73749;PMS7003;62058;48.406;-4.514;2022-07-21T14:49:36;1.00;1.00;1.00
73749;PMS7003;62058;48.406;-4.514;2022-07-21T14:52:02;1.00;1.00;1.00
73749;PMS7003;62058;48.406;-4.514;2022-07-21T14:54:28;1.00;1.00;1.00
73749;PMS7003;62058;48.406;-4.514;2022-07-21T14:56:54;0.50;0.50;0.50
73749;PMS7003;62058;48.406;-4.514;2022-07-21T14:59:19;2.00;2.00;1.25